sensor_id;sensor_type;location;lat;lon;timestamp;temperature;humidity
8269;DHT22;4174;48.304;16.364;2023-04-12T00:02:10;7.90;99.90
8269;DHT22;4174;48.304;16.364;2023-04-12T00:08:13;7.80;99.90
8269;DHT22;4174;48.304;16.364;2023-04-12T00:14:17;8.00;99.90
8269;DHT22;4174;48.304;16.364;2023-04-12T00:20:20;7.70;99.90
8269;DHT22;4174;48.304;16.364;2023-04-12T00:26:24;7.50;99.90
8269;DHT22;4174;48.304;16.364;2023-04-12T00:32:28;7.40;99.90
8269;DHT22;4174;48.304;16.364;2023-04-12T00:38:31;7.40;99.90
8269;DHT22;4174;48.304;16.364;2023-04-12T00:44:35;7.50;99.90
8269;DHT22;4174;48.304;16.364;2023-04-12T00:50:38;7.50;99.90
8269;DHT22;4174;48.304;16.364;2023-04-12T00:56:43;7.50;99.90
8269;DHT22;4174;48.304;16.364;2023-04-12T01:02:46;7.40;99.90
8269;DHT22;4174;48.304;16.364;2023-04-12T01:10:06;7.30;99.90
8269;DHT22;4174;48.304;16.364;2023-04-12T01:15:21;7.30;99.90
8269;DHT22;4174;48.304;16.364;2023-04-12T01:21:30;7.30;99.90
8269;DHT22;4174;48.304;16.364;2023-04-12T01:27:42;7.10;99.90
8269;DHT22;4174;48.304;16.364;2023-04-12T01:33:44;7.00;99.90
8269;DHT22;4174;48.304;16.364;2023-04-12T01:39:47;7.00;99.90
8269;DHT22;4174;48.304;16.364;2023-04-12T01:45:49;6.90;99.90
8269;DHT22;4174;48.304;16.364;2023-04-12T01:51:57;6.90;99.90
8269;DHT22;4174;48.304;16.364;2023-04-12T01:57:59;6.90;99.90
8269;DHT22;4174;48.304;16.364;2023-04-12T02:04:02;6.60;99.90
8269;DHT22;4174;48.304;16.364;2023-04-12T02:10:06;6.50;99.90
8269;DHT22;4174;48.304;16.364;2023-04-12T02:16:10;6.50;99.90
8269;DHT22;4174;48.304;16.364;2023-04-12T02:22:13;6.50;99.90
8269;DHT22;4174;48.304;16.364;2023-04-12T02:28:17;6.40;99.90
8269;DHT22;4174;48.304;16.364;2023-04-12T02:34:20;6.50;99.90
8269;DHT22;4174;48.304;16.364;2023-04-12T02:40:24;6.40;99.90
8269;DHT22;4174;48.304;16.364;2023-04-12T02:46:27;6.70;99.90
8269;DHT22;4174;48.304;16.364;2023-04-12T02:52:31;6.60;99.90
8269;DHT22;4174;48.304;16.364;2023-04-12T02:58:34;6.60;99.90
8269;DHT22;4174;48.304;16.364;2023-04-12T03:04:37;6.40;99.90
8269;DHT22;4174;48.304;16.364;2023-04-12T03:10:41;6.10;99.90
8269;DHT22;4174;48.304;16.364;2023-04-12T03:16:45;5.90;99.90
8269;DHT22;4174;48.304;16.364;2023-04-12T03:22:48;5.90;99.90
8269;DHT22;4174;48.304;16.364;2023-04-12T03:28:59;5.90;99.90
8269;DHT22;4174;48.304;16.364;2023-04-12T03:34:58;5.80;99.90
8269;DHT22;4174;48.304;16.364;2023-04-12T03:41:02;5.50;99.90
8269;DHT22;4174;48.304;16.364;2023-04-12T03:47:06;5.60;99.90
8269;DHT22;4174;48.304;16.364;2023-04-12T03:53:10;5.60;99.90
8269;DHT22;4174;48.304;16.364;2023-04-12T03:59:12;5.70;99.90
8269;DHT22;4174;48.304;16.364;2023-04-12T04:05:16;5.70;99.90
8269;DHT22;4174;48.304;16.364;2023-04-12T04:11:20;5.60;99.90
8269;DHT22;4174;48.304;16.364;2023-04-12T04:17:23;5.60;99.90
8269;DHT22;4174;48.304;16.364;2023-04-12T04:23:27;5.60;99.90
8269;DHT22;4174;48.304;16.364;2023-04-12T04:29:30;5.60;99.90
8269;DHT22;4174;48.304;16.364;2023-04-12T04:35:34;5.60;99.90
8269;DHT22;4174;48.304;16.364;2023-04-12T04:41:36;5.50;99.90
8269;DHT22;4174;48.304;16.364;2023-04-12T04:47:40;5.40;99.90
8269;DHT22;4174;48.304;16.364;2023-04-12T04:53:45;5.40;99.90
8269;DHT22;4174;48.304;16.364;2023-04-12T04:59:48;5.60;99.90
8269;DHT22;4174;48.304;16.364;2023-04-12T05:05:51;5.60;99.90
8269;DHT22;4174;48.304;16.364;2023-04-12T05:11:54;5.90;99.90
8269;DHT22;4174;48.304;16.364;2023-04-12T05:17:59;6.30;99.90
8269;DHT22;4174;48.304;16.364;2023-04-12T05:24:03;6.30;99.90
8269;DHT22;4174;48.304;16.364;2023-04-12T05:30:08;6.70;99.90
8269;DHT22;4174;48.304;16.364;2023-04-12T05:36:13;7.50;99.90
8269;DHT22;4174;48.304;16.364;2023-04-12T05:42:16;8.20;99.90
8269;DHT22;4174;48.304;16.364;2023-04-12T05:48:20;8.80;99.90
8269;DHT22;4174;48.304;16.364;2023-04-12T05:54:23;9.40;99.90
8269;DHT22;4174;48.304;16.364;2023-04-12T06:00:26;9.80;99.90
8269;DHT22;4174;48.304;16.364;2023-04-12T06:06:30;10.30;99.90
8269;DHT22;4174;48.304;16.364;2023-04-12T06:12:32;10.50;99.90
8269;DHT22;4174;48.304;16.364;2023-04-12T06:18:37;12.20;99.90
8269;DHT22;4174;48.304;16.364;2023-04-12T06:24:42;12.20;99.90
8269;DHT22;4174;48.304;16.364;2023-04-12T06:30:45;13.00;99.90
8269;DHT22;4174;48.304;16.364;2023-04-12T06:36:49;13.80;99.90
8269;DHT22;4174;48.304;16.364;2023-04-12T06:42:53;14.90;99.90
8269;DHT22;4174;48.304;16.364;2023-04-12T06:48:57;17.70;92.20
8269;DHT22;4174;48.304;16.364;2023-04-12T06:55:00;17.70;92.20
8269;DHT22;4174;48.304;16.364;2023-04-12T07:01:04;18.60;80.10
8269;DHT22;4174;48.304;16.364;2023-04-12T07:07:07;18.30;76.40
8269;DHT22;4174;48.304;16.364;2023-04-12T07:13:10;18.50;74.60
8269;DHT22;4174;48.304;16.364;2023-04-12T07:19:14;18.50;74.70
8269;DHT22;4174;48.304;16.364;2023-04-12T07:25:18;19.00;70.00
8269;DHT22;4174;48.304;16.364;2023-04-12T07:31:22;19.70;71.00
8269;DHT22;4174;48.304;16.364;2023-04-12T07:37:26;19.50;67.30
8269;DHT22;4174;48.304;16.364;2023-04-12T07:43:30;19.50;67.30
8269;DHT22;4174;48.304;16.364;2023-04-12T07:49:34;19.60;66.20
8269;DHT22;4174;48.304;16.364;2023-04-12T07:55:38;20.40;64.40
8269;DHT22;4174;48.304;16.364;2023-04-12T08:01:41;21.10;59.30
8269;DHT22;4174;48.304;16.364;2023-04-12T08:07:45;21.50;57.10
8269;DHT22;4174;48.304;16.364;2023-04-12T08:13:49;20.20;54.20
8269;DHT22;4174;48.304;16.364;2023-04-12T08:19:53;20.60;57.50
8269;DHT22;4174;48.304;16.364;2023-04-12T08:25:57;20.60;57.70
8269;DHT22;4174;48.304;16.364;2023-04-12T08:32:00;20.10;55.20
8269;DHT22;4174;48.304;16.364;2023-04-12T08:38:03;20.70;57.90
8269;DHT22;4174;48.304;16.364;2023-04-12T08:44:07;21.40;55.10
8269;DHT22;4174;48.304;16.364;2023-04-12T08:50:10;21.70;52.80
8269;DHT22;4174;48.304;16.364;2023-04-12T08:56:13;22.70;52.80
8269;DHT22;4174;48.304;16.364;2023-04-12T09:02:16;22.70;52.70
8269;DHT22;4174;48.304;16.364;2023-04-12T09:08:20;23.20;51.30
8269;DHT22;4174;48.304;16.364;2023-04-12T09:14:24;22.40;49.90
8269;DHT22;4174;48.304;16.364;2023-04-12T09:20:28;21.80;46.20
8269;DHT22;4174;48.304;16.364;2023-04-12T09:26:32;22.40;47.10
8269;DHT22;4174;48.304;16.364;2023-04-12T09:32:36;22.70;46.30
8269;DHT22;4174;48.304;16.364;2023-04-12T09:38:40;22.50;45.90
8269;DHT22;4174;48.304;16.364;2023-04-12T09:44:43;22.90;49.00
8269;DHT22;4174;48.304;16.364;2023-04-12T09:50:47;23.50;43.50
8269;DHT22;4174;48.304;16.364;2023-04-12T09:56:51;23.80;43.30
8269;DHT22;4174;48.304;16.364;2023-04-12T10:02:54;23.70;43.20
8269;DHT22;4174;48.304;16.364;2023-04-12T10:08:58;23.20;45.20
8269;DHT22;4174;48.304;16.364;2023-04-12T10:15:02;21.70;43.90
8269;DHT22;4174;48.304;16.364;2023-04-12T10:21:06;20.40;45.60
8269;DHT22;4174;48.304;16.364;2023-04-12T10:27:10;19.90;40.00
8269;DHT22;4174;48.304;16.364;2023-04-12T10:33:13;19.60;37.90
8269;DHT22;4174;48.304;16.364;2023-04-12T10:39:17;20.20;39.90
8269;DHT22;4174;48.304;16.364;2023-04-12T10:45:37;20.50;41.00
8269;DHT22;4174;48.304;16.364;2023-04-12T11:05:01;15.70;42.20
8269;DHT22;4174;48.304;16.364;2023-04-12T11:10:44;16.60;45.50
8269;DHT22;4174;48.304;16.364;2023-04-12T11:23:06;18.00;42.20
8269;DHT22;4174;48.304;16.364;2023-04-12T11:29:11;19.20;40.70
8269;DHT22;4174;48.304;16.364;2023-04-12T11:35:15;19.20;40.70
8269;DHT22;4174;48.304;16.364;2023-04-12T11:41:20;19.00;40.10
8269;DHT22;4174;48.304;16.364;2023-04-12T11:47:23;19.00;40.10
8269;DHT22;4174;48.304;16.364;2023-04-12T11:53:27;19.30;42.40
8269;DHT22;4174;48.304;16.364;2023-04-12T11:59:31;18.40;40.20
8269;DHT22;4174;48.304;16.364;2023-04-12T12:05:37;19.70;41.00
8269;DHT22;4174;48.304;16.364;2023-04-12T12:11:40;20.50;40.30
8269;DHT22;4174;48.304;16.364;2023-04-12T12:17:44;20.70;40.50
8269;DHT22;4174;48.304;16.364;2023-04-12T12:23:47;20.00;37.10
8269;DHT22;4174;48.304;16.364;2023-04-12T12:29:52;19.70;36.40
8269;DHT22;4174;48.304;16.364;2023-04-12T12:35:55;19.50;41.60
8269;DHT22;4174;48.304;16.364;2023-04-12T12:41:58;19.40;41.50
8269;DHT22;4174;48.304;16.364;2023-04-12T12:48:03;20.40;42.00
8269;DHT22;4174;48.304;16.364;2023-04-12T12:54:05;19.50;39.80
8269;DHT22;4174;48.304;16.364;2023-04-12T13:00:11;18.60;39.90
8269;DHT22;4174;48.304;16.364;2023-04-12T13:06:16;18.50;41.50
8269;DHT22;4174;48.304;16.364;2023-04-12T13:12:20;18.30;40.60
8269;DHT22;4174;48.304;16.364;2023-04-12T13:18:25;18.70;41.90
8269;DHT22;4174;48.304;16.364;2023-04-12T13:24:29;18.00;42.70
8269;DHT22;4174;48.304;16.364;2023-04-12T13:30:33;17.70;41.90
8269;DHT22;4174;48.304;16.364;2023-04-12T13:36:37;17.00;41.50
8269;DHT22;4174;48.304;16.364;2023-04-12T13:42:40;16.80;43.40
8269;DHT22;4174;48.304;16.364;2023-04-12T13:48:44;16.50;44.30
8269;DHT22;4174;48.304;16.364;2023-04-12T13:54:47;16.80;45.60
8269;DHT22;4174;48.304;16.364;2023-04-12T14:00:51;16.40;45.10
8269;DHT22;4174;48.304;16.364;2023-04-12T14:06:55;15.80;45.20
8269;DHT22;4174;48.304;16.364;2023-04-12T14:12:58;16.00;45.70
8269;DHT22;4174;48.304;16.364;2023-04-12T14:19:01;15.80;45.60
8269;DHT22;4174;48.304;16.364;2023-04-12T14:25:07;16.20;46.20
8269;DHT22;4174;48.304;16.364;2023-04-12T14:31:11;16.50;45.60
8269;DHT22;4174;48.304;16.364;2023-04-12T14:37:14;16.10;49.60
8269;DHT22;4174;48.304;16.364;2023-04-12T14:43:18;15.60;50.80
8269;DHT22;4174;48.304;16.364;2023-04-12T14:49:22;15.30;51.70
8269;DHT22;4174;48.304;16.364;2023-04-12T14:55:26;15.60;53.10
8269;DHT22;4174;48.304;16.364;2023-04-12T15:01:29;15.40;54.10
8269;DHT22;4174;48.304;16.364;2023-04-12T15:07:33;16.00;56.10
8269;DHT22;4174;48.304;16.364;2023-04-12T15:13:37;15.60;54.20
8269;DHT22;4174;48.304;16.364;2023-04-12T15:19:41;15.10;55.10
8269;DHT22;4174;48.304;16.364;2023-04-12T15:25:44;15.60;56.90
8269;DHT22;4174;48.304;16.364;2023-04-12T15:31:48;15.50;55.70
8269;DHT22;4174;48.304;16.364;2023-04-12T15:37:51;15.60;57.20
8269;DHT22;4174;48.304;16.364;2023-04-12T15:43:55;16.00;58.30
8269;DHT22;4174;48.304;16.364;2023-04-12T15:50:00;15.80;54.80
8269;DHT22;4174;48.304;16.364;2023-04-12T15:56:04;15.80;54.70
8269;DHT22;4174;48.304;16.364;2023-04-12T16:02:10;15.30;55.50
8269;DHT22;4174;48.304;16.364;2023-04-12T16:08:13;15.50;53.80
8269;DHT22;4174;48.304;16.364;2023-04-12T16:14:17;15.30;52.90
8269;DHT22;4174;48.304;16.364;2023-04-12T16:20:21;15.20;52.80
8269;DHT22;4174;48.304;16.364;2023-04-12T16:26:24;15.10;53.80
8269;DHT22;4174;48.304;16.364;2023-04-12T16:32:27;15.10;55.30
8269;DHT22;4174;48.304;16.364;2023-04-12T16:38:30;15.10;57.50
8269;DHT22;4174;48.304;16.364;2023-04-12T16:44:34;15.10;55.20
8269;DHT22;4174;48.304;16.364;2023-04-12T16:50:38;15.30;55.70
8269;DHT22;4174;48.304;16.364;2023-04-12T16:56:41;15.00;56.70
8269;DHT22;4174;48.304;16.364;2023-04-12T17:02:45;15.20;56.80
8269;DHT22;4174;48.304;16.364;2023-04-12T17:08:48;15.40;57.80
8269;DHT22;4174;48.304;16.364;2023-04-12T17:14:52;15.40;58.20
8269;DHT22;4174;48.304;16.364;2023-04-12T17:20:57;15.00;59.80
8269;DHT22;4174;48.304;16.364;2023-04-12T17:27:00;15.00;60.00
8269;DHT22;4174;48.304;16.364;2023-04-12T17:33:05;15.30;63.20
8269;DHT22;4174;48.304;16.364;2023-04-12T17:39:08;15.40;60.50
8269;DHT22;4174;48.304;16.364;2023-04-12T17:45:12;14.40;63.20
8269;DHT22;4174;48.304;16.364;2023-04-12T17:51:15;14.10;66.10
8269;DHT22;4174;48.304;16.364;2023-04-12T17:57:18;13.80;67.90
8269;DHT22;4174;48.304;16.364;2023-04-12T18:03:22;13.80;69.50
8269;DHT22;4174;48.304;16.364;2023-04-12T18:09:27;13.80;71.60
8269;DHT22;4174;48.304;16.364;2023-04-12T18:15:30;13.70;71.70
8269;DHT22;4174;48.304;16.364;2023-04-12T18:21:33;13.80;71.10
8269;DHT22;4174;48.304;16.364;2023-04-12T18:27:37;13.90;71.70
8269;DHT22;4174;48.304;16.364;2023-04-12T18:33:41;13.70;72.40
8269;DHT22;4174;48.304;16.364;2023-04-12T18:39:44;13.40;74.30
8269;DHT22;4174;48.304;16.364;2023-04-12T18:45:47;13.40;75.80
8269;DHT22;4174;48.304;16.364;2023-04-12T18:51:51;13.20;77.80
8269;DHT22;4174;48.304;16.364;2023-04-12T18:57:54;13.30;79.70
8269;DHT22;4174;48.304;16.364;2023-04-12T19:03:57;13.20;81.60
8269;DHT22;4174;48.304;16.364;2023-04-12T19:10:00;12.90;84.50
8269;DHT22;4174;48.304;16.364;2023-04-12T19:16:03;13.10;84.70
8269;DHT22;4174;48.304;16.364;2023-04-12T19:22:08;13.10;85.70
8269;DHT22;4174;48.304;16.364;2023-04-12T19:28:12;13.20;86.60
8269;DHT22;4174;48.304;16.364;2023-04-12T19:34:14;13.20;87.40
8269;DHT22;4174;48.304;16.364;2023-04-12T19:40:18;13.40;88.30
8269;DHT22;4174;48.304;16.364;2023-04-12T19:46:22;13.20;90.60
8269;DHT22;4174;48.304;16.364;2023-04-12T19:52:25;13.10;90.10
8269;DHT22;4174;48.304;16.364;2023-04-12T19:58:28;13.10;90.60
8269;DHT22;4174;48.304;16.364;2023-04-12T20:04:31;13.20;90.70
8269;DHT22;4174;48.304;16.364;2023-04-12T20:10:33;13.00;91.60
8269;DHT22;4174;48.304;16.364;2023-04-12T20:16:37;13.30;91.80
8269;DHT22;4174;48.304;16.364;2023-04-12T20:22:40;13.60;94.10
8269;DHT22;4174;48.304;16.364;2023-04-12T20:28:42;13.60;93.00
8269;DHT22;4174;48.304;16.364;2023-04-12T20:34:46;13.70;93.10
8269;DHT22;4174;48.304;16.364;2023-04-12T20:40:49;13.20;94.20
8269;DHT22;4174;48.304;16.364;2023-04-12T20:46:53;13.20;95.30
8269;DHT22;4174;48.304;16.364;2023-04-12T20:52:56;12.80;97.20
8269;DHT22;4174;48.304;16.364;2023-04-12T20:58:59;12.80;99.90
8269;DHT22;4174;48.304;16.364;2023-04-12T21:05:04;12.90;98.50
8269;DHT22;4174;48.304;16.364;2023-04-12T21:11:08;13.00;99.90
8269;DHT22;4174;48.304;16.364;2023-04-12T21:17:11;13.00;99.90
8269;DHT22;4174;48.304;16.364;2023-04-12T21:23:16;13.00;99.90
8269;DHT22;4174;48.304;16.364;2023-04-12T21:29:18;12.90;99.90
8269;DHT22;4174;48.304;16.364;2023-04-12T21:35:22;13.00;99.90
8269;DHT22;4174;48.304;16.364;2023-04-12T21:41:25;13.00;99.90
8269;DHT22;4174;48.304;16.364;2023-04-12T21:47:29;12.90;99.90
8269;DHT22;4174;48.304;16.364;2023-04-12T21:53:31;12.90;99.90
8269;DHT22;4174;48.304;16.364;2023-04-12T21:59:35;12.90;99.90
8269;DHT22;4174;48.304;16.364;2023-04-12T22:05:39;12.80;99.90
8269;DHT22;4174;48.304;16.364;2023-04-12T22:11:43;12.70;99.90
8269;DHT22;4174;48.304;16.364;2023-04-12T22:17:46;12.70;99.90
8269;DHT22;4174;48.304;16.364;2023-04-12T22:23:50;12.60;99.90
8269;DHT22;4174;48.304;16.364;2023-04-12T22:29:52;12.50;99.90
8269;DHT22;4174;48.304;16.364;2023-04-12T22:35:56;12.50;99.90
8269;DHT22;4174;48.304;16.364;2023-04-12T22:42:00;12.50;99.90
8269;DHT22;4174;48.304;16.364;2023-04-12T22:48:04;12.40;99.90
8269;DHT22;4174;48.304;16.364;2023-04-12T22:54:08;12.40;99.90
8269;DHT22;4174;48.304;16.364;2023-04-12T23:00:12;12.40;99.90
8269;DHT22;4174;48.304;16.364;2023-04-12T23:06:16;12.40;99.90
8269;DHT22;4174;48.304;16.364;2023-04-12T23:12:19;12.40;99.90
8269;DHT22;4174;48.304;16.364;2023-04-12T23:18:24;12.40;99.90
8269;DHT22;4174;48.304;16.364;2023-04-12T23:24:27;12.30;99.90
8269;DHT22;4174;48.304;16.364;2023-04-12T23:30:30;12.40;99.90
8269;DHT22;4174;48.304;16.364;2023-04-12T23:36:34;12.30;99.90
8269;DHT22;4174;48.304;16.364;2023-04-12T23:42:37;12.30;99.90
8269;DHT22;4174;48.304;16.364;2023-04-12T23:48:41;12.30;99.90
8269;DHT22;4174;48.304;16.364;2023-04-12T23:54:45;12.20;99.90
